sensor_id;sensor_type;location;lat;lon;timestamp;pressure;altitude;pressure_sealevel;temperature;humidity
81224;BME280;70698;44.402;18.522;2024-03-07T00:00:45;97193.66;;;6.26;100.00
81224;BME280;70698;44.402;18.522;2024-03-07T00:03:13;97206.72;;;6.26;100.00
81224;BME280;70698;44.402;18.522;2024-03-07T00:05:38;97220.41;;;6.28;100.00
81224;BME280;70698;44.402;18.522;2024-03-07T00:08:05;97216.19;;;6.27;100.00
81224;BME280;70698;44.402;18.522;2024-03-07T00:10:31;97212.22;;;6.23;100.00
81224;BME280;70698;44.402;18.522;2024-03-07T00:12:57;97214.34;;;6.20;100.00
81224;BME280;70698;44.402;18.522;2024-03-07T00:15:23;97218.09;;;6.17;100.00
81224;BME280;70698;44.402;18.522;2024-03-07T00:17:48;97218.97;;;6.34;100.00
81224;BME280;70698;44.402;18.522;2024-03-07T00:20:14;97216.56;;;6.32;100.00
81224;BME280;70698;44.402;18.522;2024-03-07T00:22:40;97225.25;;;6.41;100.00
81224;BME280;70698;44.402;18.522;2024-03-07T00:25:07;97227.16;;;6.39;100.00
81224;BME280;70698;44.402;18.522;2024-03-07T00:27:35;97221.25;;;6.29;100.00
81224;BME280;70698;44.402;18.522;2024-03-07T00:30:02;97219.09;;;6.24;100.00
81224;BME280;70698;44.402;18.522;2024-03-07T00:32:28;97224.31;;;6.24;100.00
81224;BME280;70698;44.402;18.522;2024-03-07T00:34:55;97218.53;;;6.38;100.00
81224;BME280;70698;44.402;18.522;2024-03-07T00:37:24;97223.28;;;6.43;100.00
81224;BME280;70698;44.402;18.522;2024-03-07T00:39:50;97223.25;;;6.35;100.00
81224;BME280;70698;44.402;18.522;2024-03-07T00:42:16;97218.53;;;6.38;100.00
81224;BME280;70698;44.402;18.522;2024-03-07T00:44:42;97218.13;;;6.25;100.00
81224;BME280;70698;44.402;18.522;2024-03-07T00:47:08;97218.22;;;6.16;100.00
81224;BME280;70698;44.402;18.522;2024-03-07T00:49:34;97219.19;;;6.15;100.00
81224;BME280;70698;44.402;18.522;2024-03-07T00:52:00;97215.50;;;6.25;100.00
81224;BME280;70698;44.402;18.522;2024-03-07T00:54:26;97212.41;;;6.22;100.00
81224;BME280;70698;44.402;18.522;2024-03-07T00:56:51;97212.41;;;6.22;100.00
81224;BME280;70698;44.402;18.522;2024-03-07T00:59:17;97212.09;;;6.25;100.00
81224;BME280;70698;44.402;18.522;2024-03-07T01:01:43;97207.22;;;6.30;100.00
81224;BME280;70698;44.402;18.522;2024-03-07T01:04:09;97208.91;;;6.39;100.00
81224;BME280;70698;44.402;18.522;2024-03-07T01:06:35;97217.06;;;6.36;100.00
81224;BME280;70698;44.402;18.522;2024-03-07T01:09:04;97217.66;;;6.30;100.00
81224;BME280;70698;44.402;18.522;2024-03-07T01:11:30;97207.09;;;6.39;100.00
81224;BME280;70698;44.402;18.522;2024-03-07T01:13:55;97209.09;;;6.45;100.00
81224;BME280;70698;44.402;18.522;2024-03-07T01:16:22;97205.47;;;6.38;100.00
81224;BME280;70698;44.402;18.522;2024-03-07T01:18:48;97206.97;;;6.41;100.00
81224;BME280;70698;44.402;18.522;2024-03-07T01:21:14;97203.66;;;6.31;100.00
81224;BME280;70698;44.402;18.522;2024-03-07T01:23:40;97200.72;;;6.34;100.00
81224;BME280;70698;44.402;18.522;2024-03-07T01:26:06;97188.91;;;6.22;100.00
81224;BME280;70698;44.402;18.522;2024-03-07T01:28:32;97179.31;;;6.22;100.00
81224;BME280;70698;44.402;18.522;2024-03-07T01:30:58;97195.84;;;6.39;100.00
81224;BME280;70698;44.402;18.522;2024-03-07T01:33:24;97190.94;;;6.36;100.00
81224;BME280;70698;44.402;18.522;2024-03-07T01:35:49;97197.00;;;6.36;100.00
81224;BME280;70698;44.402;18.522;2024-03-07T01:38:16;97195.34;;;6.35;100.00
81224;BME280;70698;44.402;18.522;2024-03-07T01:40:43;97189.09;;;6.28;100.00
81224;BME280;70698;44.402;18.522;2024-03-07T01:43:10;97180.91;;;6.23;100.00
81224;BME280;70698;44.402;18.522;2024-03-07T01:45:37;97187.47;;;6.27;100.00
81224;BME280;70698;44.402;18.522;2024-03-07T01:48:08;97189.91;;;6.29;100.00
81224;BME280;70698;44.402;18.522;2024-03-07T01:50:35;97195.50;;;6.34;100.00
81224;BME280;70698;44.402;18.522;2024-03-07T01:53:07;97186.03;;;6.33;100.00
81224;BME280;70698;44.402;18.522;2024-03-07T01:55:35;97194.66;;;6.33;100.00
81224;BME280;70698;44.402;18.522;2024-03-07T01:58:02;97195.66;;;6.32;100.00
81224;BME280;70698;44.402;18.522;2024-03-07T02:00:30;97187.16;;;6.30;100.00
81224;BME280;70698;44.402;18.522;2024-03-07T02:02:55;97191.31;;;6.41;100.00
81224;BME280;70698;44.402;18.522;2024-03-07T02:05:21;97186.91;;;6.41;100.00
81224;BME280;70698;44.402;18.522;2024-03-07T02:07:47;97187.19;;;6.38;100.00
81224;BME280;70698;44.402;18.522;2024-03-07T02:10:13;97181.34;;;6.36;100.00
81224;BME280;70698;44.402;18.522;2024-03-07T02:12:38;97184.22;;;6.33;100.00
81224;BME280;70698;44.402;18.522;2024-03-07T02:15:05;97191.78;;;6.36;100.00
81224;BME280;70698;44.402;18.522;2024-03-07T02:17:31;97187.84;;;6.32;100.00
81224;BME280;70698;44.402;18.522;2024-03-07T02:19:57;97176.03;;;6.28;100.00
81224;BME280;70698;44.402;18.522;2024-03-07T02:22:24;97183.75;;;6.38;100.00
81224;BME280;70698;44.402;18.522;2024-03-07T02:24:51;97181.13;;;6.30;100.00
81224;BME280;70698;44.402;18.522;2024-03-07T02:27:17;97180.31;;;6.29;100.00
81224;BME280;70698;44.402;18.522;2024-03-07T02:29:43;97177.53;;;6.31;100.00
81224;BME280;70698;44.402;18.522;2024-03-07T02:32:08;97168.41;;;6.27;100.00
81224;BME280;70698;44.402;18.522;2024-03-07T02:34:35;97181.13;;;6.30;100.00
81224;BME280;70698;44.402;18.522;2024-03-07T02:37:01;97180.97;;;6.31;100.00
81224;BME280;70698;44.402;18.522;2024-03-07T02:39:26;97184.56;;;6.30;100.00
81224;BME280;70698;44.402;18.522;2024-03-07T02:41:52;97192.25;;;6.32;100.00
81224;BME280;70698;44.402;18.522;2024-03-07T02:44:18;97184.22;;;6.33;100.00
81224;BME280;70698;44.402;18.522;2024-03-07T02:46:45;97185.16;;;6.24;100.00
81224;BME280;70698;44.402;18.522;2024-03-07T02:49:15;97189.53;;;6.16;100.00
81224;BME280;70698;44.402;18.522;2024-03-07T02:51:41;97191.47;;;6.14;100.00
81224;BME280;70698;44.402;18.522;2024-03-07T02:54:08;97184.16;;;6.17;100.00
81224;BME280;70698;44.402;18.522;2024-03-07T02:56:33;97176.94;;;6.11;100.00
81224;BME280;70698;44.402;18.522;2024-03-07T02:58:59;97184.63;;;6.13;100.00
81224;BME280;70698;44.402;18.522;2024-03-07T03:01:25;97188.84;;;6.14;100.00
81224;BME280;70698;44.402;18.522;2024-03-07T03:03:51;97193.59;;;6.18;100.00
81224;BME280;70698;44.402;18.522;2024-03-07T03:06:16;97194.03;;;6.05;100.00
81224;BME280;70698;44.402;18.522;2024-03-07T03:08:42;97184.69;;;6.03;100.00
81224;BME280;70698;44.402;18.522;2024-03-07T03:11:07;97180.13;;;5.97;100.00
81224;BME280;70698;44.402;18.522;2024-03-07T03:13:42;97186.16;;;5.97;100.00
81224;BME280;70698;44.402;18.522;2024-03-07T03:16:08;97182.56;;;5.98;100.00
81224;BME280;70698;44.402;18.522;2024-03-07T03:18:35;97190.72;;;6.03;100.00
81224;BME280;70698;44.402;18.522;2024-03-07T03:21:01;97186.28;;;5.96;100.00
81224;BME280;70698;44.402;18.522;2024-03-07T03:23:28;97182.94;;;5.86;100.00
81224;BME280;70698;44.402;18.522;2024-03-07T03:25:54;97182.44;;;5.82;100.00
81224;BME280;70698;44.402;18.522;2024-03-07T03:28:21;97187.88;;;5.89;100.00
81224;BME280;70698;44.402;18.522;2024-03-07T03:30:47;97185.44;;;5.87;100.00
81224;BME280;70698;44.402;18.522;2024-03-07T03:33:13;97188.09;;;5.95;100.00
81224;BME280;70698;44.402;18.522;2024-03-07T03:35:39;97189.94;;;5.85;100.00
81224;BME280;70698;44.402;18.522;2024-03-07T03:38:05;97182.66;;;5.71;100.00
81224;BME280;70698;44.402;18.522;2024-03-07T03:40:32;97199.63;;;5.75;100.00
81224;BME280;70698;44.402;18.522;2024-03-07T03:42:58;97190.84;;;5.58;100.00
81224;BME280;70698;44.402;18.522;2024-03-07T03:45:23;97196.38;;;5.55;100.00
81224;BME280;70698;44.402;18.522;2024-03-07T03:47:51;97191.16;;;5.55;100.00
81224;BME280;70698;44.402;18.522;2024-03-07T03:50:17;97191.91;;;5.66;100.00
81224;BME280;70698;44.402;18.522;2024-03-07T03:52:43;97195.00;;;5.69;100.00
81224;BME280;70698;44.402;18.522;2024-03-07T03:55:10;97181.31;;;5.49;100.00
81224;BME280;70698;44.402;18.522;2024-03-07T03:57:38;97179.69;;;5.48;100.00
81224;BME280;70698;44.402;18.522;2024-03-07T04:00:05;97187.66;;;5.64;100.00
81224;BME280;70698;44.402;18.522;2024-03-07T04:02:43;97177.84;;;5.84;100.00
81224;BME280;70698;44.402;18.522;2024-03-07T04:05:10;97196.13;;;6.02;100.00
81224;BME280;70698;44.402;18.522;2024-03-07T04:07:37;97199.75;;;6.09;100.00
81224;BME280;70698;44.402;18.522;2024-03-07T04:10:04;97198.22;;;6.24;100.00
81224;BME280;70698;44.402;18.522;2024-03-07T04:12:33;97203.94;;;6.28;100.00
81224;BME280;70698;44.402;18.522;2024-03-07T04:14:59;97195.00;;;6.30;100.00
81224;BME280;70698;44.402;18.522;2024-03-07T04:17:25;97203.19;;;6.35;100.00
81224;BME280;70698;44.402;18.522;2024-03-07T04:19:51;97203.16;;;6.27;100.00
81224;BME280;70698;44.402;18.522;2024-03-07T04:22:16;97202.50;;;6.33;100.00
81224;BME280;70698;44.402;18.522;2024-03-07T04:24:45;97204.59;;;6.30;100.00
81224;BME280;70698;44.402;18.522;2024-03-07T04:27:11;97187.03;;;6.32;100.00
81224;BME280;70698;44.402;18.522;2024-03-07T04:29:36;97210.19;;;6.35;100.00
81224;BME280;70698;44.402;18.522;2024-03-07T04:32:03;97205.28;;;6.32;100.00
81224;BME280;70698;44.402;18.522;2024-03-07T04:34:29;97204.13;;;6.09;100.00
81224;BME280;70698;44.402;18.522;2024-03-07T04:36:59;97209.53;;;6.07;100.00
81224;BME280;70698;44.402;18.522;2024-03-07T04:39:27;97208.75;;;6.15;100.00
81224;BME280;70698;44.402;18.522;2024-03-07T04:41:59;97210.59;;;5.96;100.00
81224;BME280;70698;44.402;18.522;2024-03-07T04:44:32;97216.53;;;6.07;100.00
81224;BME280;70698;44.402;18.522;2024-03-07T04:46:59;97209.16;;;5.84;100.00
81224;BME280;70698;44.402;18.522;2024-03-07T04:49:26;97218.75;;;5.84;100.00
81224;BME280;70698;44.402;18.522;2024-03-07T04:51:56;97216.56;;;5.71;100.00
81224;BME280;70698;44.402;18.522;2024-03-07T04:54:24;97212.63;;;5.67;100.00
81224;BME280;70698;44.402;18.522;2024-03-07T04:56:50;97221.53;;;5.64;100.00
81224;BME280;70698;44.402;18.522;2024-03-07T04:59:17;97221.41;;;5.66;100.00
81224;BME280;70698;44.402;18.522;2024-03-07T05:01:44;97229.00;;;5.59;100.00
81224;BME280;70698;44.402;18.522;2024-03-07T05:04:10;97223.63;;;5.61;100.00
81224;BME280;70698;44.402;18.522;2024-03-07T05:06:37;97234.28;;;5.68;100.00
81224;BME280;70698;44.402;18.522;2024-03-07T05:09:04;97233.69;;;5.56;100.00
81224;BME280;70698;44.402;18.522;2024-03-07T05:11:33;97240.81;;;5.54;100.00
81224;BME280;70698;44.402;18.522;2024-03-07T05:13:59;97240.31;;;5.50;100.00
81224;BME280;70698;44.402;18.522;2024-03-07T05:16:29;97239.19;;;5.35;100.00
81224;BME280;70698;44.402;18.522;2024-03-07T05:18:55;97244.13;;;5.56;100.00
81224;BME280;70698;44.402;18.522;2024-03-07T05:21:25;97245.66;;;5.31;100.00
81224;BME280;70698;44.402;18.522;2024-03-07T05:24:09;97227.81;;;5.09;100.00
81224;BME280;70698;44.402;18.522;2024-03-07T05:26:35;97247.31;;;5.05;100.00
81224;BME280;70698;44.402;18.522;2024-03-07T05:29:07;97250.84;;;4.86;100.00
81224;BME280;70698;44.402;18.522;2024-03-07T05:31:34;97258.78;;;4.85;100.00
81224;BME280;70698;44.402;18.522;2024-03-07T05:34:01;97261.69;;;4.82;100.00
81224;BME280;70698;44.402;18.522;2024-03-07T05:36:36;97262.75;;;4.89;100.00
81224;BME280;70698;44.402;18.522;2024-03-07T05:39:09;97255.03;;;4.97;100.00
81224;BME280;70698;44.402;18.522;2024-03-07T05:41:37;97267.94;;;4.89;100.00
81224;BME280;70698;44.402;18.522;2024-03-07T05:44:03;97270.28;;;4.92;100.00
81224;BME280;70698;44.402;18.522;2024-03-07T05:46:29;97280.75;;;4.82;100.00
81224;BME280;70698;44.402;18.522;2024-03-07T05:48:55;97277.94;;;4.93;100.00
81224;BME280;70698;44.402;18.522;2024-03-07T05:51:25;97282.34;;;4.93;100.00
81224;BME280;70698;44.402;18.522;2024-03-07T05:53:50;97287.59;;;4.83;100.00
81224;BME280;70698;44.402;18.522;2024-03-07T05:56:17;97276.38;;;4.83;100.00
81224;BME280;70698;44.402;18.522;2024-03-07T05:58:42;97288.66;;;4.90;100.00
81224;BME280;70698;44.402;18.522;2024-03-07T06:01:08;97291.38;;;4.89;100.00
81224;BME280;70698;44.402;18.522;2024-03-07T06:03:34;97296.19;;;4.84;100.00
81224;BME280;70698;44.402;18.522;2024-03-07T06:06:00;97295.25;;;4.85;100.00
81224;BME280;70698;44.402;18.522;2024-03-07T06:08:26;97296.88;;;4.86;100.00
81224;BME280;70698;44.402;18.522;2024-03-07T06:10:52;97294.75;;;4.71;100.00
81224;BME280;70698;44.402;18.522;2024-03-07T06:13:18;97293.06;;;4.80;100.00
81224;BME280;70698;44.402;18.522;2024-03-07T06:15:45;97302.78;;;4.88;100.00
81224;BME280;70698;44.402;18.522;2024-03-07T06:18:12;97304.56;;;4.87;100.00
81224;BME280;70698;44.402;18.522;2024-03-07T06:20:42;97295.78;;;4.88;100.00
81224;BME280;70698;44.402;18.522;2024-03-07T06:23:09;97309.22;;;4.84;100.00
81224;BME280;70698;44.402;18.522;2024-03-07T06:25:37;97298.31;;;4.70;100.00
81224;BME280;70698;44.402;18.522;2024-03-07T06:28:13;97309.97;;;4.66;100.00
81224;BME280;70698;44.402;18.522;2024-03-07T06:30:45;97298.97;;;4.82;100.00
81224;BME280;70698;44.402;18.522;2024-03-07T06:33:12;97307.41;;;4.57;100.00
81224;BME280;70698;44.402;18.522;2024-03-07T06:35:39;97312.75;;;4.55;100.00
81224;BME280;70698;44.402;18.522;2024-03-07T06:38:06;97310.81;;;4.67;100.00
81224;BME280;70698;44.402;18.522;2024-03-07T06:40:32;97321.63;;;4.72;100.00
81224;BME280;70698;44.402;18.522;2024-03-07T06:43:01;97307.59;;;4.83;100.00
81224;BME280;70698;44.402;18.522;2024-03-07T06:45:35;97313.22;;;4.88;100.00
81224;BME280;70698;44.402;18.522;2024-03-07T06:48:06;97326.66;;;4.73;100.00
81224;BME280;70698;44.402;18.522;2024-03-07T06:50:35;97319.38;;;4.87;100.00
81224;BME280;70698;44.402;18.522;2024-03-07T06:53:03;97320.97;;;4.97;100.00
81224;BME280;70698;44.402;18.522;2024-03-07T06:55:29;97337.06;;;4.83;100.00
81224;BME280;70698;44.402;18.522;2024-03-07T06:57:54;97327.25;;;4.67;100.00
81224;BME280;70698;44.402;18.522;2024-03-07T07:00:20;97332.59;;;4.66;100.00
81224;BME280;70698;44.402;18.522;2024-03-07T07:02:47;97332.78;;;4.92;100.00
81224;BME280;70698;44.402;18.522;2024-03-07T07:05:13;97338.16;;;4.81;100.00
81224;BME280;70698;44.402;18.522;2024-03-07T07:07:50;97338.38;;;4.50;100.00
81224;BME280;70698;44.402;18.522;2024-03-07T07:10:19;97334.47;;;4.83;100.00
81224;BME280;70698;44.402;18.522;2024-03-07T07:12:46;97345.50;;;4.95;100.00
81224;BME280;70698;44.402;18.522;2024-03-07T07:15:12;97354.50;;;4.54;100.00
81224;BME280;70698;44.402;18.522;2024-03-07T07:17:38;97349.63;;;4.41;100.00
81224;BME280;70698;44.402;18.522;2024-03-07T07:20:04;97345.63;;;4.56;100.00
81224;BME280;70698;44.402;18.522;2024-03-07T07:22:38;97356.72;;;4.39;100.00
81224;BME280;70698;44.402;18.522;2024-03-07T07:25:04;97352.75;;;4.35;100.00
81224;BME280;70698;44.402;18.522;2024-03-07T07:27:33;97360.84;;;4.42;100.00
81224;BME280;70698;44.402;18.522;2024-03-07T07:29:59;97371.94;;;4.24;100.00
81224;BME280;70698;44.402;18.522;2024-03-07T07:32:24;97369.34;;;4.24;100.00
81224;BME280;70698;44.402;18.522;2024-03-07T07:34:51;97382.09;;;4.08;100.00
81224;BME280;70698;44.402;18.522;2024-03-07T07:37:16;97382.22;;;4.16;100.00
81224;BME280;70698;44.402;18.522;2024-03-07T07:39:42;97374.13;;;4.10;100.00
81224;BME280;70698;44.402;18.522;2024-03-07T07:42:08;97392.34;;;4.29;100.00
81224;BME280;70698;44.402;18.522;2024-03-07T07:44:35;97396.47;;;4.31;100.00
81224;BME280;70698;44.402;18.522;2024-03-07T07:47:01;97384.94;;;4.53;100.00
81224;BME280;70698;44.402;18.522;2024-03-07T07:49:26;97400.78;;;4.69;100.00
81224;BME280;70698;44.402;18.522;2024-03-07T07:51:52;97405.19;;;4.69;100.00
81224;BME280;70698;44.402;18.522;2024-03-07T07:54:19;97396.00;;;4.74;100.00
81224;BME280;70698;44.402;18.522;2024-03-07T07:56:46;97404.78;;;4.83;100.00
81224;BME280;70698;44.402;18.522;2024-03-07T07:59:13;97409.16;;;4.83;100.00
81224;BME280;70698;44.402;18.522;2024-03-07T08:01:39;97404.13;;;4.52;100.00
81224;BME280;70698;44.402;18.522;2024-03-07T08:04:05;97416.44;;;4.41;100.00
81224;BME280;70698;44.402;18.522;2024-03-07T08:06:31;97418.38;;;4.58;100.00
81224;BME280;70698;44.402;18.522;2024-03-07T08:08:57;97416.28;;;4.81;100.00
81224;BME280;70698;44.402;18.522;2024-03-07T08:11:22;97418.06;;;4.80;100.00
81224;BME280;70698;44.402;18.522;2024-03-07T08:13:48;97435.44;;;4.80;100.00
81224;BME280;70698;44.402;18.522;2024-03-07T08:16:16;97428.50;;;4.42;100.00
81224;BME280;70698;44.402;18.522;2024-03-07T08:18:42;97436.56;;;4.29;100.00
81224;BME280;70698;44.402;18.522;2024-03-07T08:21:07;97437.25;;;4.21;100.00
81224;BME280;70698;44.402;18.522;2024-03-07T08:23:36;97428.34;;;4.24;100.00
81224;BME280;70698;44.402;18.522;2024-03-07T08:26:02;97433.13;;;4.09;100.00
81224;BME280;70698;44.402;18.522;2024-03-07T08:28:28;97438.63;;;4.25;100.00
81224;BME280;70698;44.402;18.522;2024-03-07T08:30:54;97439.28;;;3.59;100.00
81224;BME280;70698;44.402;18.522;2024-03-07T08:33:20;97439.06;;;3.71;100.00
81224;BME280;70698;44.402;18.522;2024-03-07T08:35:49;97438.53;;;3.68;100.00
81224;BME280;70698;44.402;18.522;2024-03-07T08:38:18;97445.22;;;3.30;100.00
81224;BME280;70698;44.402;18.522;2024-03-07T08:40:44;97445.69;;;3.45;100.00
81224;BME280;70698;44.402;18.522;2024-03-07T08:43:09;97449.81;;;3.47;100.00
81224;BME280;70698;44.402;18.522;2024-03-07T08:45:35;97451.06;;;3.53;100.00
81224;BME280;70698;44.402;18.522;2024-03-07T08:48:02;97448.50;;;3.63;100.00
81224;BME280;70698;44.402;18.522;2024-03-07T08:50:32;97455.38;;;3.73;100.00
81224;BME280;70698;44.402;18.522;2024-03-07T08:52:59;97447.19;;;3.78;100.00
81224;BME280;70698;44.402;18.522;2024-03-07T08:55:26;97452.22;;;3.79;100.00
81224;BME280;70698;44.402;18.522;2024-03-07T08:57:52;97457.28;;;3.71;100.00
81224;BME280;70698;44.402;18.522;2024-03-07T09:00:19;97461.16;;;3.86;100.00
81224;BME280;70698;44.402;18.522;2024-03-07T09:02:48;97439.06;;;3.62;100.00
81224;BME280;70698;44.402;18.522;2024-03-07T09:05:18;97467.06;;;3.88;100.00
81224;BME280;70698;44.402;18.522;2024-03-07T09:07:45;97468.03;;;3.97;100.00
81224;BME280;70698;44.402;18.522;2024-03-07T09:10:12;97468.97;;;3.96;100.00
81224;BME280;70698;44.402;18.522;2024-03-07T09:12:37;97465.25;;;3.99;100.00
81224;BME280;70698;44.402;18.522;2024-03-07T09:15:04;97473.59;;;3.83;100.00
81224;BME280;70698;44.402;18.522;2024-03-07T09:17:30;97481.03;;;3.97;100.00
81224;BME280;70698;44.402;18.522;2024-03-07T09:19:55;97480.41;;;3.44;100.00
81224;BME280;70698;44.402;18.522;2024-03-07T09:22:21;97486.75;;;3.30;100.00
81224;BME280;70698;44.402;18.522;2024-03-07T09:24:47;97488.72;;;3.38;100.00
81224;BME280;70698;44.402;18.522;2024-03-07T09:27:12;97483.72;;;3.25;100.00
81224;BME280;70698;44.402;18.522;2024-03-07T09:29:40;97488.78;;;3.47;100.00
81224;BME280;70698;44.402;18.522;2024-03-07T09:32:06;97491.97;;;3.30;100.00
81224;BME280;70698;44.402;18.522;2024-03-07T09:34:36;97498.75;;;3.42;100.00
81224;BME280;70698;44.402;18.522;2024-03-07T09:37:02;97490.72;;;3.55;100.00
81224;BME280;70698;44.402;18.522;2024-03-07T09:39:28;97484.72;;;3.34;100.00
81224;BME280;70698;44.402;18.522;2024-03-07T09:41:57;97494.38;;;3.22;100.00
81224;BME280;70698;44.402;18.522;2024-03-07T09:44:24;97492.91;;;3.29;100.00
81224;BME280;70698;44.402;18.522;2024-03-07T09:46:54;97502.66;;;3.37;100.00
81224;BME280;70698;44.402;18.522;2024-03-07T09:49:20;97497.59;;;3.15;100.00
81224;BME280;70698;44.402;18.522;2024-03-07T09:51:47;97491.00;;;3.31;100.00
81224;BME280;70698;44.402;18.522;2024-03-07T09:54:13;97496.16;;;3.22;100.00
81224;BME280;70698;44.402;18.522;2024-03-07T09:56:41;97507.31;;;3.33;100.00
81224;BME280;70698;44.402;18.522;2024-03-07T09:59:11;97493.63;;;3.11;100.00
81224;BME280;70698;44.402;18.522;2024-03-07T10:01:39;97498.94;;;3.09;100.00
81224;BME280;70698;44.402;18.522;2024-03-07T10:04:12;97508.97;;;3.14;100.00
81224;BME280;70698;44.402;18.522;2024-03-07T10:06:43;97515.56;;;3.18;100.00
81224;BME280;70698;44.402;18.522;2024-03-07T10:09:10;97509.97;;;3.22;100.00
81224;BME280;70698;44.402;18.522;2024-03-07T10:11:42;97513.63;;;3.40;100.00
81224;BME280;70698;44.402;18.522;2024-03-07T10:14:11;97510.53;;;3.26;100.00
81224;BME280;70698;44.402;18.522;2024-03-07T10:16:37;97515.72;;;3.26;100.00
81224;BME280;70698;44.402;18.522;2024-03-07T10:19:04;97523.28;;;3.08;100.00
81224;BME280;70698;44.402;18.522;2024-03-07T10:21:30;97515.47;;;3.29;100.00
81224;BME280;70698;44.402;18.522;2024-03-07T10:24:14;97518.38;;;3.15;100.00
81224;BME280;70698;44.402;18.522;2024-03-07T10:26:40;97507.56;;;3.10;100.00
81224;BME280;70698;44.402;18.522;2024-03-07T10:29:09;97513.06;;;3.37;100.00
81224;BME280;70698;44.402;18.522;2024-03-07T10:31:35;97517.56;;;3.14;100.00
81224;BME280;70698;44.402;18.522;2024-03-07T10:34:04;97517.25;;;3.28;100.00
81224;BME280;70698;44.402;18.522;2024-03-07T10:36:33;97522.91;;;3.13;100.00
81224;BME280;70698;44.402;18.522;2024-03-07T10:39:02;97512.38;;;3.14;100.00
81224;BME280;70698;44.402;18.522;2024-03-07T10:41:42;97508.88;;;3.25;100.00
81224;BME280;70698;44.402;18.522;2024-03-07T10:44:11;97517.06;;;3.20;100.00
81224;BME280;70698;44.402;18.522;2024-03-07T10:46:44;97525.13;;;3.17;100.00
81224;BME280;70698;44.402;18.522;2024-03-07T10:49:15;97517.88;;;3.21;100.00
81224;BME280;70698;44.402;18.522;2024-03-07T10:51:46;97520.41;;;3.11;100.00
81224;BME280;70698;44.402;18.522;2024-03-07T10:54:34;97519.81;;;3.19;100.00
81224;BME280;70698;44.402;18.522;2024-03-07T10:59:47;97515.06;;;3.03;100.00
81224;BME280;70698;44.402;18.522;2024-03-07T11:04:55;97511.25;;;3.07;100.00
81224;BME280;70698;44.402;18.522;2024-03-07T11:07:24;97511.25;;;3.07;100.00
81224;BME280;70698;44.402;18.522;2024-03-07T11:09:51;97523.13;;;3.10;100.00
81224;BME280;70698;44.402;18.522;2024-03-07T11:12:24;97501.41;;;3.11;100.00
81224;BME280;70698;44.402;18.522;2024-03-07T11:14:54;97518.72;;;3.21;100.00
81224;BME280;70698;44.402;18.522;2024-03-07T11:17:22;97510.41;;;3.27;100.00
81224;BME280;70698;44.402;18.522;2024-03-07T11:19:48;97516.72;;;3.34;100.00
81224;BME280;70698;44.402;18.522;2024-03-07T11:22:30;97525.34;;;3.35;100.00
81224;BME280;70698;44.402;18.522;2024-03-07T11:25:04;97511.75;;;3.22;100.00
81224;BME280;70698;44.402;18.522;2024-03-07T11:27:36;97514.00;;;3.15;100.00
81224;BME280;70698;44.402;18.522;2024-03-07T11:30:07;97510.09;;;3.21;100.00
81224;BME280;70698;44.402;18.522;2024-03-07T11:32:37;97520.97;;;3.35;100.00
81224;BME280;70698;44.402;18.522;2024-03-07T11:35:04;97516.78;;;3.44;100.00
81224;BME280;70698;44.402;18.522;2024-03-07T11:37:41;97503.53;;;3.47;100.00
81224;BME280;70698;44.402;18.522;2024-03-07T11:42:49;97515.75;;;3.56;100.00
81224;BME280;70698;44.402;18.522;2024-03-07T11:45:16;97517.31;;;3.38;100.00
81224;BME280;70698;44.402;18.522;2024-03-07T11:47:57;97519.59;;;3.31;100.00
81224;BME280;70698;44.402;18.522;2024-03-07T11:50:28;97518.81;;;3.40;100.00
81224;BME280;70698;44.402;18.522;2024-03-07T11:52:55;97515.94;;;3.13;100.00
81224;BME280;70698;44.402;18.522;2024-03-07T11:55:23;97523.97;;;3.31;100.00
81224;BME280;70698;44.402;18.522;2024-03-07T11:57:50;97525.00;;;3.19;100.00
81224;BME280;70698;44.402;18.522;2024-03-07T12:00:19;97513.00;;;3.27;100.00
81224;BME280;70698;44.402;18.522;2024-03-07T12:02:46;97514.06;;;3.04;100.00
81224;BME280;70698;44.402;18.522;2024-03-07T12:05:14;97525.63;;;3.11;100.00
81224;BME280;70698;44.402;18.522;2024-03-07T12:07:42;97510.59;;;3.15;100.00
81224;BME280;70698;44.402;18.522;2024-03-07T12:10:08;97517.94;;;3.30;100.00
81224;BME280;70698;44.402;18.522;2024-03-07T12:12:36;97513.94;;;3.26;100.00
81224;BME280;70698;44.402;18.522;2024-03-07T12:15:08;97510.75;;;3.13;100.00
81224;BME280;70698;44.402;18.522;2024-03-07T12:17:46;97516.44;;;3.28;100.00
81224;BME280;70698;44.402;18.522;2024-03-07T12:20:18;97514.06;;;3.25;100.00
81224;BME280;70698;44.402;18.522;2024-03-07T12:22:51;97516.00;;;3.23;100.00
81224;BME280;70698;44.402;18.522;2024-03-07T12:25:22;97507.44;;;3.32;100.00
81224;BME280;70698;44.402;18.522;2024-03-07T12:28:02;97505.78;;;3.31;100.00
81224;BME280;70698;44.402;18.522;2024-03-07T12:30:35;97511.34;;;3.47;100.00
81224;BME280;70698;44.402;18.522;2024-03-07T12:33:02;97502.44;;;3.50;100.00
81224;BME280;70698;44.402;18.522;2024-03-07T12:35:32;97502.22;;;3.53;100.00
81224;BME280;70698;44.402;18.522;2024-03-07T12:37:58;97499.47;;;3.54;100.00
81224;BME280;70698;44.402;18.522;2024-03-07T12:40:26;97506.69;;;3.51;100.00
81224;BME280;70698;44.402;18.522;2024-03-07T12:42:54;97510.91;;;3.72;100.00
81224;BME280;70698;44.402;18.522;2024-03-07T12:45:20;97508.59;;;3.79;100.00
81224;BME280;70698;44.402;18.522;2024-03-07T12:47:51;97504.38;;;3.78;100.00
81224;BME280;70698;44.402;18.522;2024-03-07T12:50:20;97499.81;;;3.70;100.00
81224;BME280;70698;44.402;18.522;2024-03-07T12:52:49;97506.94;;;3.68;100.00
81224;BME280;70698;44.402;18.522;2024-03-07T12:55:16;97520.03;;;3.67;100.00
81224;BME280;70698;44.402;18.522;2024-03-07T12:57:48;97510.13;;;3.81;100.00
81224;BME280;70698;44.402;18.522;2024-03-07T13:00:16;97508.59;;;3.79;100.00